sensor_id;sensor_type;location;lat;lon;timestamp;pressure;altitude;pressure_sealevel;temperature;humidity
24390;BME280;12510;56.468;-3.004;2022-07-29T00:01:47;100967.50;;;19.07;100.00
24390;BME280;12510;56.468;-3.004;2022-07-29T00:04:13;100964.28;;;18.97;100.00
24390;BME280;12510;56.468;-3.004;2022-07-29T00:06:40;100970.34;;;18.91;100.00
24390;BME280;12510;56.468;-3.004;2022-07-29T00:09:07;100964.38;;;18.89;100.00
24390;BME280;12510;56.468;-3.004;2022-07-29T00:11:33;100966.00;;;18.90;100.00
24390;BME280;12510;56.468;-3.004;2022-07-29T00:13:59;100967.66;;;18.91;100.00
24390;BME280;12510;56.468;-3.004;2022-07-29T00:16:26;100964.19;;;18.90;100.00
24390;BME280;12510;56.468;-3.004;2022-07-29T00:18:52;100966.84;;;18.90;100.00
24390;BME280;12510;56.468;-3.004;2022-07-29T00:21:19;100970.34;;;18.91;100.00
24390;BME280;12510;56.468;-3.004;2022-07-29T00:23:45;100972.00;;;18.92;100.00
24390;BME280;12510;56.468;-3.004;2022-07-29T00:26:11;100970.69;;;18.88;100.00
24390;BME280;12510;56.468;-3.004;2022-07-29T00:28:38;100970.25;;;18.99;100.00
24390;BME280;12510;56.468;-3.004;2022-07-29T00:31:04;100977.88;;;18.87;100.00
24390;BME280;12510;56.468;-3.004;2022-07-29T00:33:31;100973.94;;;18.98;100.00
24390;BME280;12510;56.468;-3.004;2022-07-29T00:35:57;100977.06;;;19.02;100.00
24390;BME280;12510;56.468;-3.004;2022-07-29T00:38:24;100964.84;;;19.07;100.00
24390;BME280;12510;56.468;-3.004;2022-07-29T00:40:50;100967.34;;;18.86;100.00
24390;BME280;12510;56.468;-3.004;2022-07-29T00:43:17;100969.63;;;18.97;100.00
24390;BME280;12510;56.468;-3.004;2022-07-29T00:45:44;100962.19;;;19.07;100.00
24390;BME280;12510;56.468;-3.004;2022-07-29T00:48:10;100964.47;;;19.11;100.00
24390;BME280;12510;56.468;-3.004;2022-07-29T00:50:38;100959.13;;;19.11;100.00
24390;BME280;12510;56.468;-3.004;2022-07-29T00:53:08;100965.19;;;19.19;100.00
24390;BME280;12510;56.468;-3.004;2022-07-29T00:55:34;100967.59;;;19.29;100.00
24390;BME280;12510;56.468;-3.004;2022-07-29T00:58:01;100962.91;;;19.16;100.00
24390;BME280;12510;56.468;-3.004;2022-07-29T01:00:28;100960.03;;;19.18;100.00
24390;BME280;12510;56.468;-3.004;2022-07-29T01:02:55;100957.84;;;19.06;100.00
24390;BME280;12510;56.468;-3.004;2022-07-29T01:05:23;100959.66;;;19.06;100.00
24390;BME280;12510;56.468;-3.004;2022-07-29T01:07:53;100955.38;;;19.05;100.00
24390;BME280;12510;56.468;-3.004;2022-07-29T01:10:21;100949.56;;;19.01;100.00
24390;BME280;12510;56.468;-3.004;2022-07-29T01:12:49;100949.66;;;19.08;100.00
24390;BME280;12510;56.468;-3.004;2022-07-29T01:15:17;100956.19;;;19.05;100.00
24390;BME280;12510;56.468;-3.004;2022-07-29T01:23:24;100954.06;;;19.01;100.00
24390;BME280;12510;56.468;-3.004;2022-07-29T01:26:31;100948.84;;;19.07;100.00
24390;BME280;12510;56.468;-3.004;2022-07-29T01:31:47;100946.06;;;19.16;100.00
24390;BME280;12510;56.468;-3.004;2022-07-29T01:34:23;100947.34;;;18.90;100.00
24390;BME280;12510;56.468;-3.004;2022-07-29T01:37:07;100953.41;;;19.14;100.00
24390;BME280;12510;56.468;-3.004;2022-07-29T01:39:36;100950.00;;;19.20;100.00
24390;BME280;12510;56.468;-3.004;2022-07-29T01:42:34;100945.97;;;19.24;100.00
24390;BME280;12510;56.468;-3.004;2022-07-29T01:47:35;100942.91;;;19.27;100.00
24390;BME280;12510;56.468;-3.004;2022-07-29T01:50:07;100941.44;;;19.24;100.00
24390;BME280;12510;56.468;-3.004;2022-07-29T01:52:39;100941.09;;;19.28;100.00
24390;BME280;12510;56.468;-3.004;2022-07-29T01:55:14;100938.56;;;19.26;100.00
24390;BME280;12510;56.468;-3.004;2022-07-29T01:57:44;100939.41;;;19.26;100.00
24390;BME280;12510;56.468;-3.004;2022-07-29T02:00:12;100948.44;;;19.25;100.00
24390;BME280;12510;56.468;-3.004;2022-07-29T02:02:40;100943.28;;;19.24;100.00
24390;BME280;12510;56.468;-3.004;2022-07-29T02:05:11;100939.59;;;19.25;100.00
24390;BME280;12510;56.468;-3.004;2022-07-29T02:07:40;100934.06;;;19.26;100.00
24390;BME280;12510;56.468;-3.004;2022-07-29T02:10:07;100926.50;;;19.30;100.00
24390;BME280;12510;56.468;-3.004;2022-07-29T02:12:36;100939.13;;;19.36;100.00
24390;BME280;12510;56.468;-3.004;2022-07-29T02:15:05;100933.78;;;19.36;100.00
24390;BME280;12510;56.468;-3.004;2022-07-29T02:17:41;100938.22;;;19.29;100.00
24390;BME280;12510;56.468;-3.004;2022-07-29T02:20:11;100925.75;;;19.36;100.00
24390;BME280;12510;56.468;-3.004;2022-07-29T02:22:39;100930.91;;;19.38;100.00
24390;BME280;12510;56.468;-3.004;2022-07-29T02:25:08;100929.09;;;19.38;100.00
24390;BME280;12510;56.468;-3.004;2022-07-29T02:27:35;100931.38;;;19.41;100.00
24390;BME280;12510;56.468;-3.004;2022-07-29T02:30:04;100932.19;;;19.42;100.00
24390;BME280;12510;56.468;-3.004;2022-07-29T02:32:34;100925.47;;;19.46;100.00
24390;BME280;12510;56.468;-3.004;2022-07-29T02:35:01;100932.00;;;19.43;100.00
24390;BME280;12510;56.468;-3.004;2022-07-29T02:37:29;100927.31;;;19.46;100.00
24390;BME280;12510;56.468;-3.004;2022-07-29T02:39:57;100931.84;;;19.45;100.00
24390;BME280;12510;56.468;-3.004;2022-07-29T02:42:26;100920.97;;;19.47;100.00
24390;BME280;12510;56.468;-3.004;2022-07-29T02:44:54;100923.09;;;19.36;100.00
24390;BME280;12510;56.468;-3.004;2022-07-29T02:47:31;100923.47;;;19.33;100.00
24390;BME280;12510;56.468;-3.004;2022-07-29T02:50:06;100918.34;;;19.32;100.00
24390;BME280;12510;56.468;-3.004;2022-07-29T02:52:54;100921.31;;;19.43;100.00
24390;BME280;12510;56.468;-3.004;2022-07-29T02:55:30;100920.97;;;19.47;100.00
24390;BME280;12510;56.468;-3.004;2022-07-29T02:58:13;100918.91;;;19.49;100.00
24390;BME280;12510;56.468;-3.004;2022-07-29T03:00:42;100920.59;;;19.50;100.00
24390;BME280;12510;56.468;-3.004;2022-07-29T03:03:16;100915.09;;;19.36;100.00
24390;BME280;12510;56.468;-3.004;2022-07-29T03:05:43;100919.03;;;19.40;100.00
24390;BME280;12510;56.468;-3.004;2022-07-29T03:08:11;100909.84;;;19.28;100.00
24390;BME280;12510;56.468;-3.004;2022-07-29T03:10:39;100917.47;;;19.31;100.00
24390;BME280;12510;56.468;-3.004;2022-07-29T03:13:09;100918.13;;;19.33;100.00
24390;BME280;12510;56.468;-3.004;2022-07-29T03:15:36;100915.91;;;19.37;100.00
24390;BME280;12510;56.468;-3.004;2022-07-29T03:18:03;100917.38;;;19.39;100.00
24390;BME280;12510;56.468;-3.004;2022-07-29T03:20:31;100919.22;;;19.39;100.00
24390;BME280;12510;56.468;-3.004;2022-07-29T03:22:58;100922.38;;;19.28;100.00
24390;BME280;12510;56.468;-3.004;2022-07-29T03:25:24;100928.66;;;19.20;100.00
24390;BME280;12510;56.468;-3.004;2022-07-29T03:27:53;100925.31;;;19.33;100.00
24390;BME280;12510;56.468;-3.004;2022-07-29T03:30:19;100920.81;;;19.33;100.00
24390;BME280;12510;56.468;-3.004;2022-07-29T03:32:46;100922.91;;;19.38;100.00
24390;BME280;12510;56.468;-3.004;2022-07-29T03:35:12;100922.56;;;19.41;100.00
24390;BME280;12510;56.468;-3.004;2022-07-29T03:37:39;100913.41;;;19.35;100.00
24390;BME280;12510;56.468;-3.004;2022-07-29T03:40:08;100924.50;;;19.17;100.00
24390;BME280;12510;56.468;-3.004;2022-07-29T03:42:39;100913.72;;;19.25;100.00
24390;BME280;12510;56.468;-3.004;2022-07-29T03:45:08;100908.00;;;19.29;100.00
24390;BME280;12510;56.468;-3.004;2022-07-29T03:47:39;100907.41;;;19.12;100.00
24390;BME280;12510;56.468;-3.004;2022-07-29T03:50:08;100915.66;;;19.17;100.00
24390;BME280;12510;56.468;-3.004;2022-07-29T03:52:38;100908.22;;;19.12;100.00
24390;BME280;12510;56.468;-3.004;2022-07-29T03:55:05;100914.84;;;19.16;100.00
24390;BME280;12510;56.468;-3.004;2022-07-29T03:57:32;100909.88;;;19.13;100.00
24390;BME280;12510;56.468;-3.004;2022-07-29T03:59:59;100908.59;;;19.09;100.00
24390;BME280;12510;56.468;-3.004;2022-07-29T04:02:31;100907.75;;;19.08;100.00
24390;BME280;12510;56.468;-3.004;2022-07-29T04:04:58;100916.81;;;19.07;100.00
24390;BME280;12510;56.468;-3.004;2022-07-29T04:07:25;100912.81;;;19.03;100.00
24390;BME280;12510;56.468;-3.004;2022-07-29T04:09:51;100910.81;;;18.90;100.00
24390;BME280;12510;56.468;-3.004;2022-07-29T04:12:18;100904.56;;;18.98;100.00
24390;BME280;12510;56.468;-3.004;2022-07-29T04:14:44;100912.38;;;19.00;100.00
24390;BME280;12510;56.468;-3.004;2022-07-29T04:17:10;100915.25;;;18.98;100.00
24390;BME280;12510;56.468;-3.004;2022-07-29T04:19:37;100911.28;;;18.94;100.00
24390;BME280;12510;56.468;-3.004;2022-07-29T04:22:03;100910.25;;;18.95;100.00
24390;BME280;12510;56.468;-3.004;2022-07-29T04:24:30;100902.22;;;18.80;100.00
24390;BME280;12510;56.468;-3.004;2022-07-29T04:26:56;100902.03;;;18.82;100.00
24390;BME280;12510;56.468;-3.004;2022-07-29T04:29:22;100899.38;;;18.97;100.00
24390;BME280;12510;56.468;-3.004;2022-07-29T04:31:49;100903.91;;;18.96;100.00
24390;BME280;12510;56.468;-3.004;2022-07-29T04:34:15;100901.44;;;18.95;100.00
24390;BME280;12510;56.468;-3.004;2022-07-29T04:36:41;100906.56;;;18.96;100.00
24390;BME280;12510;56.468;-3.004;2022-07-29T04:39:11;100905.47;;;18.75;100.00
24390;BME280;12510;56.468;-3.004;2022-07-29T04:41:37;100899.13;;;18.91;100.00
24390;BME280;12510;56.468;-3.004;2022-07-29T04:44:04;100902.88;;;18.67;100.00
24390;BME280;12510;56.468;-3.004;2022-07-29T04:46:31;100904.16;;;18.71;100.00
24390;BME280;12510;56.468;-3.004;2022-07-29T04:48:58;100899.66;;;18.87;100.00
24390;BME280;12510;56.468;-3.004;2022-07-29T04:51:24;100904.09;;;18.95;100.00
24390;BME280;12510;56.468;-3.004;2022-07-29T04:53:51;100904.72;;;18.97;100.00
24390;BME280;12510;56.468;-3.004;2022-07-29T04:56:17;100910.25;;;18.95;100.00
24390;BME280;12510;56.468;-3.004;2022-07-29T04:58:43;100906.09;;;18.77;100.00
24390;BME280;12510;56.468;-3.004;2022-07-29T05:01:10;100902.31;;;18.87;100.00
24390;BME280;12510;56.468;-3.004;2022-07-29T05:03:36;100896.47;;;18.91;100.00
24390;BME280;12510;56.468;-3.004;2022-07-29T05:06:02;100900.22;;;18.97;100.00
24390;BME280;12510;56.468;-3.004;2022-07-29T05:08:29;100898.19;;;18.99;100.00
24390;BME280;12510;56.468;-3.004;2022-07-29T05:10:55;100910.16;;;19.03;100.00
24390;BME280;12510;56.468;-3.004;2022-07-29T05:13:22;100897.47;;;19.05;100.00
24390;BME280;12510;56.468;-3.004;2022-07-29T05:15:48;100908.59;;;19.09;100.00
24390;BME280;12510;56.468;-3.004;2022-07-29T05:18:15;100905.75;;;18.96;100.00
24390;BME280;12510;56.468;-3.004;2022-07-29T05:20:41;100908.94;;;19.06;100.00
24390;BME280;12510;56.468;-3.004;2022-07-29T05:23:08;100908.44;;;18.96;100.00
24390;BME280;12510;56.468;-3.004;2022-07-29T05:25:34;100912.75;;;19.12;100.00
24390;BME280;12510;56.468;-3.004;2022-07-29T05:28:01;100909.06;;;18.98;100.00
24390;BME280;12510;56.468;-3.004;2022-07-29T05:30:27;100916.03;;;19.14;100.00
24390;BME280;12510;56.468;-3.004;2022-07-29T05:32:54;100909.97;;;19.20;100.00
24390;BME280;12510;56.468;-3.004;2022-07-29T05:35:20;100917.88;;;19.28;100.00
24390;BME280;12510;56.468;-3.004;2022-07-29T05:37:46;100919.38;;;19.16;100.00
24390;BME280;12510;56.468;-3.004;2022-07-29T05:40:13;100917.22;;;19.26;100.00
24390;BME280;12510;56.468;-3.004;2022-07-29T05:42:39;100917.53;;;19.01;100.00
24390;BME280;12510;56.468;-3.004;2022-07-29T05:45:06;100910.78;;;19.20;100.00
24390;BME280;12510;56.468;-3.004;2022-07-29T05:47:32;100911.72;;;19.13;100.00
24390;BME280;12510;56.468;-3.004;2022-07-29T05:49:59;100903.72;;;18.98;100.00
24390;BME280;12510;56.468;-3.004;2022-07-29T05:52:25;100907.25;;;19.35;100.00
24390;BME280;12510;56.468;-3.004;2022-07-29T05:54:52;100911.53;;;19.29;100.00
24390;BME280;12510;56.468;-3.004;2022-07-29T05:57:21;100913.31;;;19.43;100.00
24390;BME280;12510;56.468;-3.004;2022-07-29T05:59:49;100907.94;;;19.07;100.00
24390;BME280;12510;56.468;-3.004;2022-07-29T06:02:16;100908.47;;;19.32;100.00
24390;BME280;12510;56.468;-3.004;2022-07-29T06:04:43;100907.41;;;19.48;100.00
24390;BME280;12510;56.468;-3.004;2022-07-29T06:07:09;100906.09;;;19.22;100.00
24390;BME280;12510;56.468;-3.004;2022-07-29T06:09:37;100910.56;;;19.52;100.00
24390;BME280;12510;56.468;-3.004;2022-07-29T06:12:04;100907.56;;;19.62;100.00
24390;BME280;12510;56.468;-3.004;2022-07-29T06:14:33;100909.50;;;19.53;100.00
24390;BME280;12510;56.468;-3.004;2022-07-29T06:17:00;100906.97;;;19.45;100.00
24390;BME280;12510;56.468;-3.004;2022-07-29T06:19:26;100906.28;;;19.57;100.00
24390;BME280;12510;56.468;-3.004;2022-07-29T06:21:53;100906.03;;;19.74;100.00
24390;BME280;12510;56.468;-3.004;2022-07-29T06:24:19;100910.50;;;19.67;100.00
24390;BME280;12510;56.468;-3.004;2022-07-29T06:26:45;100906.13;;;19.81;100.00
24390;BME280;12510;56.468;-3.004;2022-07-29T06:29:12;100914.38;;;19.64;100.00
24390;BME280;12510;56.468;-3.004;2022-07-29T06:31:38;100908.41;;;19.84;100.00
24390;BME280;12510;56.468;-3.004;2022-07-29T06:34:05;100908.41;;;19.84;100.00
24390;BME280;12510;56.468;-3.004;2022-07-29T06:36:35;100906.88;;;19.74;100.00
24390;BME280;12510;56.468;-3.004;2022-07-29T06:39:04;100910.16;;;19.55;100.00
24390;BME280;12510;56.468;-3.004;2022-07-29T06:41:31;100908.91;;;20.16;100.00
24390;BME280;12510;56.468;-3.004;2022-07-29T06:44:03;100906.38;;;20.07;100.00
24390;BME280;12510;56.468;-3.004;2022-07-29T06:46:30;100909.31;;;20.13;100.00
24390;BME280;12510;56.468;-3.004;2022-07-29T06:48:58;100904.16;;;20.11;100.00
24390;BME280;12510;56.468;-3.004;2022-07-29T06:51:24;100903.19;;;20.19;100.00
24390;BME280;12510;56.468;-3.004;2022-07-29T06:53:51;100910.44;;;20.25;100.00
24390;BME280;12510;56.468;-3.004;2022-07-29T06:56:18;100914.38;;;20.29;100.00
24390;BME280;12510;56.468;-3.004;2022-07-29T06:58:44;100919.66;;;20.51;100.00
24390;BME280;12510;56.468;-3.004;2022-07-29T07:01:11;100926.81;;;20.43;100.00
24390;BME280;12510;56.468;-3.004;2022-07-29T07:03:37;100925.47;;;20.54;100.00
24390;BME280;12510;56.468;-3.004;2022-07-29T07:06:04;100935.09;;;20.49;100.00
24390;BME280;12510;56.468;-3.004;2022-07-29T07:08:30;100930.16;;;20.46;100.00
24390;BME280;12510;56.468;-3.004;2022-07-29T07:10:56;100921.16;;;20.60;100.00
24390;BME280;12510;56.468;-3.004;2022-07-29T07:13:23;100925.31;;;20.63;100.00
24390;BME280;12510;56.468;-3.004;2022-07-29T07:15:50;100920.06;;;20.48;100.00
24390;BME280;12510;56.468;-3.004;2022-07-29T07:18:18;100919.78;;;20.92;100.00
24390;BME280;12510;56.468;-3.004;2022-07-29T07:20:44;100930.03;;;21.31;100.00
24390;BME280;12510;56.468;-3.004;2022-07-29T07:23:11;100922.16;;;20.81;100.00
24390;BME280;12510;56.468;-3.004;2022-07-29T07:25:37;100932.34;;;20.99;100.00
24390;BME280;12510;56.468;-3.004;2022-07-29T07:28:04;100934.66;;;20.73;100.00
24390;BME280;12510;56.468;-3.004;2022-07-29T07:30:30;100940.19;;;21.00;100.00
24390;BME280;12510;56.468;-3.004;2022-07-29T07:32:57;100943.53;;;20.74;100.00
24390;BME280;12510;56.468;-3.004;2022-07-29T07:35:23;100943.84;;;20.64;100.00
24390;BME280;12510;56.468;-3.004;2022-07-29T07:37:50;100933.97;;;20.93;100.00
24390;BME280;12510;56.468;-3.004;2022-07-29T07:40:16;100937.28;;;20.67;100.00
24390;BME280;12510;56.468;-3.004;2022-07-29T07:42:43;100939.41;;;20.71;100.00
24390;BME280;12510;56.468;-3.004;2022-07-29T07:45:09;100933.78;;;20.66;100.00
24390;BME280;12510;56.468;-3.004;2022-07-29T07:47:37;100939.28;;;20.86;100.00
24390;BME280;12510;56.468;-3.004;2022-07-29T07:50:06;100938.91;;;20.96;100.00
24390;BME280;12510;56.468;-3.004;2022-07-29T07:52:33;100942.31;;;20.76;100.00
24390;BME280;12510;56.468;-3.004;2022-07-29T07:55:00;100943.03;;;20.92;100.00
24390;BME280;12510;56.468;-3.004;2022-07-29T07:57:27;100944.63;;;20.58;100.00
24390;BME280;12510;56.468;-3.004;2022-07-29T07:59:53;100931.56;;;21.05;100.00
24390;BME280;12510;56.468;-3.004;2022-07-29T08:02:19;100932.41;;;21.12;100.00
24390;BME280;12510;56.468;-3.004;2022-07-29T08:04:46;100926.00;;;21.55;100.00
24390;BME280;12510;56.468;-3.004;2022-07-29T08:07:12;100922.53;;;20.77;100.00
24390;BME280;12510;56.468;-3.004;2022-07-29T08:09:40;100921.31;;;21.70;100.00
24390;BME280;12510;56.468;-3.004;2022-07-29T08:12:07;100916.41;;;22.14;100.00
24390;BME280;12510;56.468;-3.004;2022-07-29T08:14:33;100920.53;;;22.17;100.00
24390;BME280;12510;56.468;-3.004;2022-07-29T08:17:00;100918.88;;;21.89;100.00
24390;BME280;12510;56.468;-3.004;2022-07-29T08:19:26;100923.03;;;22.52;100.00
24390;BME280;12510;56.468;-3.004;2022-07-29T08:21:53;100916.81;;;21.84;100.00
24390;BME280;12510;56.468;-3.004;2022-07-29T08:24:21;100910.25;;;22.40;100.00
24390;BME280;12510;56.468;-3.004;2022-07-29T08:27:07;100903.63;;;22.03;100.00
24390;BME280;12510;56.468;-3.004;2022-07-29T08:29:33;100901.16;;;22.21;100.00
24390;BME280;12510;56.468;-3.004;2022-07-29T08:32:00;100894.75;;;22.02;100.00
24390;BME280;12510;56.468;-3.004;2022-07-29T08:34:27;100897.00;;;22.59;100.00
24390;BME280;12510;56.468;-3.004;2022-07-29T08:36:55;100903.63;;;22.56;100.00
24390;BME280;12510;56.468;-3.004;2022-07-29T08:39:22;100893.72;;;22.37;100.00
24390;BME280;12510;56.468;-3.004;2022-07-29T08:41:49;100892.16;;;23.47;100.00
24390;BME280;12510;56.468;-3.004;2022-07-29T08:44:18;100886.25;;;23.31;100.00
24390;BME280;12510;56.468;-3.004;2022-07-29T08:46:45;100884.47;;;23.82;100.00
24390;BME280;12510;56.468;-3.004;2022-07-29T08:49:11;100879.91;;;23.19;100.00
24390;BME280;12510;56.468;-3.004;2022-07-29T08:51:40;100885.81;;;23.66;100.00
24390;BME280;12510;56.468;-3.004;2022-07-29T08:54:08;100883.53;;;24.46;100.00
24390;BME280;12510;56.468;-3.004;2022-07-29T08:56:36;100872.31;;;24.30;100.00
24390;BME280;12510;56.468;-3.004;2022-07-29T08:59:03;100875.66;;;23.75;100.00
24390;BME280;12510;56.468;-3.004;2022-07-29T09:01:35;100877.47;;;24.32;100.00
24390;BME280;12510;56.468;-3.004;2022-07-29T09:04:04;100875.50;;;25.32;100.00
24390;BME280;12510;56.468;-3.004;2022-07-29T09:06:33;100868.53;;;26.56;100.00
24390;BME280;12510;56.468;-3.004;2022-07-29T09:09:00;100863.03;;;26.51;100.00
24390;BME280;12510;56.468;-3.004;2022-07-29T09:11:27;100866.56;;;26.04;100.00
24390;BME280;12510;56.468;-3.004;2022-07-29T09:13:54;100870.31;;;27.43;100.00
24390;BME280;12510;56.468;-3.004;2022-07-29T09:16:20;100871.97;;;28.91;100.00
24390;BME280;12510;56.468;-3.004;2022-07-29T09:18:47;100873.06;;;28.12;100.00
24390;BME280;12510;56.468;-3.004;2022-07-29T09:21:16;100871.59;;;26.71;100.00
24390;BME280;12510;56.468;-3.004;2022-07-29T09:24:14;100869.78;;;28.66;100.00
24390;BME280;12510;56.468;-3.004;2022-07-29T09:26:45;100873.31;;;29.70;100.00
24390;BME280;12510;56.468;-3.004;2022-07-29T09:29:13;100876.88;;;30.08;100.00
24390;BME280;12510;56.468;-3.004;2022-07-29T09:31:43;100870.44;;;29.50;100.00
24390;BME280;12510;56.468;-3.004;2022-07-29T09:34:13;100874.50;;;29.25;100.00
24390;BME280;12510;56.468;-3.004;2022-07-29T09:36:44;100879.19;;;30.80;95.71
24390;BME280;12510;56.468;-3.004;2022-07-29T09:39:12;100879.03;;;31.13;94.83
24390;BME280;12510;56.468;-3.004;2022-07-29T09:41:45;100883.94;;;30.09;98.24
24390;BME280;12510;56.468;-3.004;2022-07-29T09:44:12;100887.69;;;29.38;99.73
24390;BME280;12510;56.468;-3.004;2022-07-29T09:46:40;100884.13;;;29.65;99.89
24390;BME280;12510;56.468;-3.004;2022-07-29T09:49:12;100887.00;;;29.81;99.17
24390;BME280;12510;56.468;-3.004;2022-07-29T09:51:40;100877.28;;;30.81;94.19
24390;BME280;12510;56.468;-3.004;2022-07-29T09:54:24;100877.63;;;30.95;88.87
24390;BME280;12510;56.468;-3.004;2022-07-29T09:56:55;100871.75;;;30.55;94.15
24390;BME280;12510;56.468;-3.004;2022-07-29T09:59:21;100874.50;;;29.47;96.30
24390;BME280;12510;56.468;-3.004;2022-07-29T10:01:52;100870.66;;;27.98;100.00
24390;BME280;12510;56.468;-3.004;2022-07-29T10:04:19;100868.81;;;28.77;100.00
24390;BME280;12510;56.468;-3.004;2022-07-29T10:06:59;100879.22;;;27.15;100.00
24390;BME280;12510;56.468;-3.004;2022-07-29T10:09:27;100874.19;;;26.78;100.00
24390;BME280;12510;56.468;-3.004;2022-07-29T10:12:11;100868.50;;;27.20;100.00
24390;BME280;12510;56.468;-3.004;2022-07-29T10:14:40;100877.75;;;28.38;100.00
24390;BME280;12510;56.468;-3.004;2022-07-29T10:17:09;100872.06;;;28.57;100.00
24390;BME280;12510;56.468;-3.004;2022-07-29T10:19:37;100872.63;;;28.59;100.00
24390;BME280;12510;56.468;-3.004;2022-07-29T10:22:06;100870.16;;;28.35;100.00
24390;BME280;12510;56.468;-3.004;2022-07-29T10:24:34;100877.88;;;28.88;100.00
24390;BME280;12510;56.468;-3.004;2022-07-29T10:27:02;100876.69;;;28.17;100.00
24390;BME280;12510;56.468;-3.004;2022-07-29T10:29:29;100869.03;;;27.46;100.00
24390;BME280;12510;56.468;-3.004;2022-07-29T10:37:37;100860.09;;;29.19;100.00
24390;BME280;12510;56.468;-3.004;2022-07-29T10:43:24;100851.69;;;28.93;100.00
24390;BME280;12510;56.468;-3.004;2022-07-29T10:45:56;100860.22;;;30.37;100.00
24390;BME280;12510;56.468;-3.004;2022-07-29T10:48:23;100856.56;;;30.16;98.13
24390;BME280;12510;56.468;-3.004;2022-07-29T10:51:01;100843.22;;;30.09;100.00
24390;BME280;12510;56.468;-3.004;2022-07-29T10:56:30;100847.88;;;30.14;100.00
24390;BME280;12510;56.468;-3.004;2022-07-29T11:01:53;100848.53;;;27.84;100.00
24390;BME280;12510;56.468;-3.004;2022-07-29T11:07:14;100859.88;;;28.76;100.00
24390;BME280;12510;56.468;-3.004;2022-07-29T11:09:42;100847.69;;;29.01;100.00
24390;BME280;12510;56.468;-3.004;2022-07-29T11:15:18;100856.53;;;28.69;100.00
24390;BME280;12510;56.468;-3.004;2022-07-29T11:20:42;100842.25;;;29.56;100.00
24390;BME280;12510;56.468;-3.004;2022-07-29T11:28:53;100844.69;;;27.80;100.00
24390;BME280;12510;56.468;-3.004;2022-07-29T11:31:46;100841.81;;;27.24;100.00
24390;BME280;12510;56.468;-3.004;2022-07-29T11:39:36;100841.91;;;26.71;100.00
24390;BME280;12510;56.468;-3.004;2022-07-29T11:45:02;100843.31;;;25.79;100.00
24390;BME280;12510;56.468;-3.004;2022-07-29T11:47:40;100843.69;;;26.30;100.00
24390;BME280;12510;56.468;-3.004;2022-07-29T11:50:12;100840.91;;;25.47;100.00
24390;BME280;12510;56.468;-3.004;2022-07-29T11:52:41;100847.13;;;26.14;100.00
24390;BME280;12510;56.468;-3.004;2022-07-29T11:55:16;100834.66;;;25.35;100.00
24390;BME280;12510;56.468;-3.004;2022-07-29T12:00:22;100829.81;;;25.79;100.00
24390;BME280;12510;56.468;-3.004;2022-07-29T12:02:48;100831.75;;;25.18;100.00
24390;BME280;12510;56.468;-3.004;2022-07-29T12:05:15;100828.72;;;25.56;100.00
24390;BME280;12510;56.468;-3.004;2022-07-29T12:07:42;100833.81;;;25.34;100.00
24390;BME280;12510;56.468;-3.004;2022-07-29T12:10:08;100828.63;;;25.33;100.00
24390;BME280;12510;56.468;-3.004;2022-07-29T12:12:35;100823.69;;;25.30;100.00
24390;BME280;12510;56.468;-3.004;2022-07-29T12:15:15;100822.91;;;25.95;100.00
24390;BME280;12510;56.468;-3.004;2022-07-29T12:17:47;100820.88;;;25.55;100.00
24390;BME280;12510;56.468;-3.004;2022-07-29T12:20:23;100815.78;;;26.13;100.00
24390;BME280;12510;56.468;-3.004;2022-07-29T12:22:50;100819.03;;;25.91;100.00
24390;BME280;12510;56.468;-3.004;2022-07-29T12:25:17;100822.91;;;25.95;100.00
24390;BME280;12510;56.468;-3.004;2022-07-29T12:27:44;100816.31;;;25.79;100.00
24390;BME280;12510;56.468;-3.004;2022-07-29T12:30:15;100815.06;;;26.05;100.00
24390;BME280;12510;56.468;-3.004;2022-07-29T12:35:15;100813.25;;;25.64;100.00
24390;BME280;12510;56.468;-3.004;2022-07-29T12:37:44;100807.84;;;25.40;100.00
24390;BME280;12510;56.468;-3.004;2022-07-29T12:40:12;100810.09;;;26.50;100.00
24390;BME280;12510;56.468;-3.004;2022-07-29T12:42:40;100810.78;;;26.98;100.00
24390;BME280;12510;56.468;-3.004;2022-07-29T12:45:07;100813.00;;;26.60;100.00
24390;BME280;12510;56.468;-3.004;2022-07-29T12:47:50;100813.44;;;26.04;100.00
24390;BME280;12510;56.468;-3.004;2022-07-29T12:50:17;100812.97;;;26.07;100.00
24390;BME280;12510;56.468;-3.004;2022-07-29T12:52:45;100810.47;;;25.94;100.00
24390;BME280;12510;56.468;-3.004;2022-07-29T12:55:12;100809.16;;;25.73;100.00
24390;BME280;12510;56.468;-3.004;2022-07-29T12:57:48;100815.44;;;25.43;100.00
24390;BME280;12510;56.468;-3.004;2022-07-29T13:00:24;100808.16;;;25.01;100.00
24390;BME280;12510;56.468;-3.004;2022-07-29T13:02:58;100812.66;;;24.52;100.00
24390;BME280;12510;56.468;-3.004;2022-07-29T13:05:42;100804.03;;;24.99;100.00
24390;BME280;12510;56.468;-3.004;2022-07-29T13:08:13;100795.22;;;25.88;100.00
24390;BME280;12510;56.468;-3.004;2022-07-29T13:10:40;100787.00;;;25.94;100.00
24390;BME280;12510;56.468;-3.004;2022-07-29T13:13:14;100788.50;;;26.50;100.00
24390;BME280;12510;56.468;-3.004;2022-07-29T13:15:43;100786.22;;;26.18;100.00
24390;BME280;12510;56.468;-3.004;2022-07-29T13:18:30;100777.59;;;26.45;100.00
24390;BME280;12510;56.468;-3.004;2022-07-29T13:20:58;100772.94;;;26.69;100.00
24390;BME280;12510;56.468;-3.004;2022-07-29T13:23:36;100770.22;;;26.69;100.00
24390;BME280;12510;56.468;-3.004;2022-07-29T13:26:10;100763.69;;;26.93;100.00
24390;BME280;12510;56.468;-3.004;2022-07-29T13:28:42;100761.00;;;26.53;100.00
24390;BME280;12510;56.468;-3.004;2022-07-29T13:31:08;100762.16;;;26.16;100.00
24390;BME280;12510;56.468;-3.004;2022-07-29T13:33:35;100771.75;;;26.12;100.00